Time;durP1;ratioP1;P1;durP2;ratioP2;P2;SDS_P1;SDS_P2;PMS_P1;PMS_P2;Temp;Humidity;BMP_temperature;BMP_pressure;BME280_temperature;BME280_humidity;BME280_pressure;Samples;Min_cycle;Max_cycle;Signal;HPM_P1;HPM_P2
2023/03/09 00:04:23;;;;;;;34.50;24.70;;;22.40;53.60;;;;;;222169;1263;22519;-43
2023/03/09 00:09:27;;;;;;;33.70;23.90;;;22.40;53.60;;;;;;222174;1263;25377;-44
2023/03/09 00:14:31;;;;;;;38.30;24.90;;;22.40;53.60;;;;;;222167;1259;22735;-43
2023/03/09 00:19:35;;;;;;;32.50;22.60;;;22.30;53.50;;;;;;221895;1263;24177;-42
2023/03/09 00:24:46;;;;;;;33.30;22.70;;;22.30;53.60;;;;;;229410;1246;22518;-42
2023/03/09 00:29:50;;;;;;;31.50;22.60;;;22.40;53.50;;;;;;223750;1263;22519;-43
2023/03/09 00:34:54;;;;;;;31.70;22.20;;;22.40;52.90;;;;;;222184;1263;22637;-42
2023/03/09 00:39:58;;;;;;;33.30;23.40;;;22.20;53.00;;;;;;222350;1265;22511;-43
2023/03/09 00:45:03;;;;;;;34.30;22.50;;;22.00;53.90;;;;;;222009;1263;24835;-52
2023/03/09 00:50:09;;;;;;;30.20;21.30;;;22.00;53.60;;;;;;222561;1270;22521;-55
2023/03/09 00:55:13;;;;;;;27.90;21.20;;;22.00;53.60;;;;;;222361;1257;22643;-55
2023/03/09 01:00:18;;;;;;;26.90;21.10;;;21.90;54.00;;;;;;221961;1256;23847;-53
2023/03/09 01:05:22;;;;;;;30.00;22.20;;;21.80;53.70;;;;;;221929;1266;25207;-53
2023/03/09 01:10:26;;;;;;;28.20;20.70;;;21.90;53.60;;;;;;226205;1268;22515;-55
2023/03/09 01:15:30;;;;;;;32.40;20.70;;;21.90;53.80;;;;;;225916;1263;24241;-55
2023/03/09 01:20:35;;;;;;;26.60;19.60;;;22.20;53.20;;;;;;222347;1266;25313;-55
2023/03/09 01:25:39;;;;;;;29.10;20.30;;;22.40;52.90;;;;;;222355;1266;24311;-55
2023/03/09 01:30:43;;;;;;;24.10;18.50;;;22.70;52.00;;;;;;222154;1263;22746;-56
2023/03/09 01:35:48;;;;;;;25.60;18.60;;;22.90;51.60;;;;;;222059;1263;22770;-54
2023/03/09 01:40:52;;;;;;;23.50;18.10;;;23.10;51.20;;;;;;222257;1256;23120;-53
2023/03/09 01:46:22;;;;;;;22.00;17.60;;;23.20;51.00;;;;;;222029;1257;22508;-54
2023/03/09 01:51:32;;;;;;;23.80;17.90;;;23.20;50.80;;;;;;221885;1263;25369;-50
2023/03/09 01:56:37;;;;;;;20.80;16.60;;;23.20;50.80;;;;;;222194;1264;22526;-55
2023/03/09 02:01:42;;;;;;;23.40;18.80;;;23.10;50.60;;;;;;222105;1256;24246;-52
2023/03/09 02:06:47;;;;;;;22.70;17.30;;;23.10;50.90;;;;;;222285;1264;22620;-54
2023/03/09 02:11:53;;;;;;;22.00;17.10;;;23.20;51.10;;;;;;222022;1259;22530;-54
2023/03/09 02:16:57;;;;;;;20.40;16.40;;;23.20;51.30;;;;;;222106;1263;173031;-55
2023/03/09 02:22:02;;;;;;;20.80;16.10;;;23.20;50.90;;;;;;221990;1266;22507;-56
2023/03/09 02:27:09;;;;;;;20.80;15.80;;;23.30;50.80;;;;;;222178;1263;22504;-54
2023/03/09 02:32:14;;;;;;;20.50;15.80;;;23.30;50.80;;;;;;222293;1266;22525;-55
2023/03/09 02:37:35;;;;;;;22.10;16.20;;;23.40;51.00;;;;;;222220;1263;24351;-54
2023/03/09 02:43:01;;;;;;;17.90;15.10;;;23.40;50.50;;;;;;222034;1264;22592;-55
2023/03/09 02:48:05;;;;;;;20.20;15.10;;;23.40;50.60;;;;;;222178;1270;24297;-54
2023/03/09 02:53:10;;;;;;;21.20;15.40;;;23.30;50.70;;;;;;220961;1276;22639;-51
2023/03/09 02:58:15;;;;;;;17.90;15.20;;;23.40;50.70;;;;;;220955;1275;22565;-53
2023/03/09 03:03:20;;;;;;;17.90;14.40;;;23.20;50.80;;;;;;221540;1275;24091;-52
2023/03/09 03:08:24;;;;;;;20.50;15.30;;;23.10;51.00;;;;;;221348;1268;25462;-52
2023/03/09 03:13:41;;;;;;;17.80;14.80;;;23.00;51.10;;;;;;221952;1253;24272;-54
2023/03/09 03:18:47;;;;;;;17.00;14.60;;;23.00;51.00;;;;;;222010;1263;22630;-54
2023/03/09 03:23:52;;;;;;;19.00;14.40;;;22.90;51.50;;;;;;222047;1268;22599;-56
2023/03/09 03:28:57;;;;;;;16.80;14.90;;;22.70;51.30;;;;;;222039;1266;25315;-54
2023/03/09 03:34:02;;;;;;;16.40;14.10;;;22.60;51.70;;;;;;222288;1270;22537;-56
2023/03/09 03:39:11;;;;;;;16.70;13.30;;;22.50;51.90;;;;;;222359;1269;25360;-55
2023/03/09 03:44:15;;;;;;;16.10;13.70;;;22.50;52.00;;;;;;222307;1264;23950;-54
2023/03/09 03:49:21;;;;;;;16.00;13.10;;;22.40;52.30;;;;;;222259;1270;22609;-54
2023/03/09 03:54:26;;;;;;;15.60;13.90;;;22.30;52.30;;;;;;222432;1269;22617;-54
2023/03/09 03:59:33;;;;;;;18.00;14.30;;;22.30;52.30;;;;;;222493;1269;24223;-57
2023/03/09 04:04:37;;;;;;;15.20;13.60;;;22.20;52.40;;;;;;222277;1264;23017;-55
2023/03/09 04:09:44;;;;;;;15.80;13.70;;;22.20;52.60;;;;;;222704;1256;24183;-55
2023/03/09 04:14:49;;;;;;;17.40;13.70;;;22.10;52.60;;;;;;222419;1266;22638;-55
2023/03/09 04:19:53;;;;;;;16.00;13.30;;;22.20;52.50;;;;;;222566;1269;25551;-54
2023/03/09 04:24:58;;;;;;;17.10;13.50;;;22.00;52.50;;;;;;222302;1266;26478;-55
2023/03/09 04:30:03;;;;;;;15.10;13.20;;;22.00;52.50;;;;;;222151;1267;22549;-55
2023/03/09 04:35:09;;;;;;;13.80;12.30;;;22.00;52.50;;;;;;222040;1266;22630;-55
2023/03/09 04:40:18;;;;;;;18.70;12.70;;;22.00;53.00;;;;;;222106;1266;22508;-54
2023/03/09 04:45:23;;;;;;;15.90;12.70;;;21.90;52.50;;;;;;222149;1267;25252;-54
2023/03/09 04:50:29;;;;;;;15.30;13.00;;;21.90;52.80;;;;;;222160;1263;22626;-53
2023/03/09 04:55:37;;;;;;;15.30;12.30;;;21.80;53.10;;;;;;222211;1269;24254;-54
2023/03/09 05:00:46;;;;;;;14.40;12.50;;;21.90;52.90;;;;;;222164;1269;22656;-55
2023/03/09 05:05:54;;;;;;;12.90;11.50;;;22.30;52.40;;;;;;222058;1266;22558;-52
2023/03/09 05:11:02;;;;;;;15.00;12.30;;;22.50;52.30;;;;;;222306;1264;24174;-55
2023/03/09 05:16:08;;;;;;;12.70;11.40;;;22.70;51.70;;;;;;221992;1266;22732;-55
2023/03/09 05:21:17;;;;;;;16.40;12.80;;;23.00;51.20;;;;;;222198;1266;24686;-54
2023/03/09 05:26:22;;;;;;;14.00;12.50;;;23.20;50.40;;;;;;222275;1264;23532;-54
2023/03/09 05:31:29;;;;;;;12.40;11.10;;;23.20;50.30;;;;;;222158;1269;22712;-54
2023/03/09 05:36:33;;;;;;;13.60;11.70;;;23.20;50.40;;;;;;222241;1266;22518;-55
2023/03/09 05:41:57;;;;;;;12.10;10.90;;;23.10;50.50;;;;;;222162;1263;22841;-49
2023/03/09 05:47:20;;;;;;;12.40;11.10;;;23.10;50.50;;;;;;222021;1270;22521;-48
2023/03/09 05:52:24;;;;;;;12.30;10.10;;;23.20;50.20;;;;;;222174;1266;23011;-48
2023/03/09 05:57:28;;;;;;;12.00;10.80;;;23.20;50.20;;;;;;222104;1270;24103;-48
2023/03/09 06:02:33;;;;;;;11.90;10.20;;;23.40;50.00;;;;;;221888;1268;23318;-48
2023/03/09 06:07:38;;;;;;;11.60;10.40;;;23.30;50.00;;;;;;222319;1270;22507;-49
2023/03/09 06:12:42;;;;;;;14.60;10.70;;;23.40;50.30;;;;;;222016;1270;22524;-48
2023/03/09 06:17:47;;;;;;;10.80;9.70;;;23.40;49.70;;;;;;222343;1257;24239;-50
2023/03/09 06:22:54;;;;;;;12.00;10.70;;;23.50;49.60;;;;;;222354;1263;25389;-50
2023/03/09 06:27:58;;;;;;;12.60;10.80;;;23.60;49.50;;;;;;222367;1266;22521;-51
2023/03/09 06:33:04;;;;;;;12.00;10.50;;;23.50;49.80;;;;;;222416;1269;22524;-49
2023/03/09 06:38:10;;;;;;;12.00;10.70;;;23.50;49.40;;;;;;222473;1269;24321;-48
2023/03/09 06:43:15;;;;;;;11.20;10.10;;;23.50;49.60;;;;;;222463;1269;24182;-42
2023/03/09 06:48:21;;;;;;;11.90;10.70;;;23.40;49.80;;;;;;222593;1266;22521;-41
2023/03/09 06:53:25;;;;;;;13.40;10.80;;;23.10;49.90;;;;;;222577;1263;25377;-40
2023/03/09 06:58:33;;;;;;;17.00;11.20;;;23.00;50.80;;;;;;222608;1266;26647;-42
2023/03/09 07:03:39;;;;;;;16.00;11.40;;;22.90;51.20;;;;;;222690;1269;24199;-41
2023/03/09 07:08:44;;;;;;;18.00;11.00;;;22.90;51.30;;;;;;222461;1264;22633;-41
2023/03/09 07:13:48;;;;;;;25.00;10.90;;;22.80;52.30;;;;;;222183;1257;22501;-41
2023/03/09 07:18:52;;;;;;;14.10;10.40;;;22.80;51.80;;;;;;222083;1269;26581;-42
2023/03/09 07:23:56;;;;;;;13.80;10.70;;;22.70;52.20;;;;;;221980;1257;22517;-41
2023/03/09 07:29:01;;;;;;;17.80;11.00;;;22.70;52.40;;;;;;222273;1264;23155;-41
2023/03/09 07:34:05;;;;;;;12.10;10.30;;;22.80;53.00;;;;;;222352;1267;25054;-40
2023/03/09 07:39:10;;;;;;;17.00;11.10;;;22.60;52.60;;;;;;222055;1247;22721;-40
2023/03/09 07:44:15;;;;;;;13.60;9.70;;;22.60;52.90;;;;;;222221;1264;22627;-41
2023/03/09 07:49:19;;;;;;;16.80;9.10;;;22.50;53.10;;;;;;222266;1267;25387;-40
2023/03/09 07:54:23;;;;;;;14.30;9.30;;;22.60;52.90;;;;;;222489;1256;24193;-40
2023/03/09 07:59:28;;;;;;;12.90;8.80;;;22.30;53.60;;;;;;222437;1257;24212;-41
2023/03/09 08:04:32;;;;;;;20.60;8.70;;;22.50;53.50;;;;;;222220;1258;22508;-42
2023/03/09 08:09:37;;;;;;;16.90;8.70;;;22.30;53.90;;;;;;222278;1258;23135;-41
2023/03/09 08:14:41;;;;;;;16.20;9.00;;;22.20;53.80;;;;;;222060;1264;22517;-40
2023/03/09 08:19:45;;;;;;;12.20;8.90;;;22.10;53.90;;;;;;223434;1264;23022;-41
2023/03/09 08:24:49;;;;;;;11.60;9.10;;;22.00;53.70;;;;;;225706;1257;23926;-41
2023/03/09 08:29:53;;;;;;;9.30;8.20;;;22.00;53.60;;;;;;222257;1264;24180;-40
2023/03/09 08:34:57;;;;;;;9.80;8.30;;;21.90;53.70;;;;;;222345;1269;22521;-41
2023/03/09 08:40:01;;;;;;;10.50;8.10;;;21.80;53.90;;;;;;222256;1267;26152;-40
2023/03/09 08:45:07;;;;;;;10.30;8.50;;;21.70;53.70;;;;;;222271;1263;22543;-41
2023/03/09 08:50:11;;;;;;;12.00;8.20;;;21.70;53.70;;;;;;222127;1251;26095;-43
2023/03/09 08:55:16;;;;;;;9.60;8.60;;;21.60;53.70;;;;;;222027;1263;23820;-49
2023/03/09 09:00:21;;;;;;;9.70;7.50;;;21.60;53.60;;;;;;222087;1257;22491;-43
2023/03/09 09:05:26;;;;;;;8.60;7.60;;;21.60;53.70;;;;;;222025;1257;25472;-42
2023/03/09 09:10:30;;;;;;;10.10;7.50;;;21.80;53.30;;;;;;222270;1254;22518;-45
2023/03/09 09:15:41;;;;;;;10.30;7.50;;;22.00;52.80;;;;;;222273;1255;23876;-45
2023/03/09 09:20:44;;;;;;;9.30;7.30;;;22.40;52.10;;;;;;222091;1263;22511;-43
2023/03/09 09:25:54;;;;;;;8.00;7.10;;;22.60;52.10;;;;;;222181;1258;22641;-44
2023/03/09 09:31:00;;;;;;;7.10;6.40;;;22.70;51.10;;;;;;222265;1258;22512;-42
2023/03/09 09:36:09;;;;;;;7.50;6.70;;;22.90;50.90;;;;;;222072;1257;24209;-43
2023/03/09 09:41:37;;;;;;;11.00;7.20;;;23.00;50.80;;;;;;222296;1256;24196;-43
2023/03/09 09:47:20;;;;;;;7.10;6.40;;;23.00;50.70;;;;;;222234;1262;23054;-43
2023/03/09 09:52:33;;;;;;;7.30;6.60;;;23.20;50.50;;;;;;222198;1257;22781;-44
2023/03/09 09:57:43;;;;;;;7.40;6.40;;;23.20;50.30;;;;;;222345;1257;24274;-44
2023/03/09 10:03:10;;;;;;;7.20;6.50;;;23.20;50.20;;;;;;222021;1257;24215;-42
2023/03/09 10:08:29;;;;;;;6.50;5.70;;;23.30;50.30;;;;;;222125;1257;25330;-41
2023/03/09 10:14:25;;;;;;;6.50;5.50;;;23.40;50.30;;;;;;222216;1257;22518;-44
2023/03/09 10:19:33;;;;;;;6.40;5.80;;;23.40;50.10;;;;;;221763;1264;22508;-46
2023/03/09 10:24:51;;;;;;;6.10;5.50;;;23.50;49.90;;;;;;222154;1256;22518;-41
2023/03/09 10:30:17;;;;;;;6.30;5.60;;;23.50;50.10;;;;;;222225;1255;22515;-44
2023/03/09 10:35:38;;;;;;;6.50;5.90;;;23.50;50.10;;;;;;222100;1263;22974;-51
2023/03/09 10:40:46;;;;;;;8.50;6.00;;;23.40;50.20;;;;;;224341;1267;25210;-53
2023/03/09 10:45:50;;;;;;;9.80;5.50;;;23.30;49.90;;;;;;224351;1269;22912;-51
2023/03/09 10:51:02;;;;;;;5.50;5.00;;;23.30;50.10;;;;;;222360;1264;22511;-56
2023/03/09 10:56:13;;;;;;;6.30;5.20;;;23.10;50.30;;;;;;222202;1267;24346;-53
2023/03/09 11:01:19;;;;;;;5.20;4.70;;;22.90;50.30;;;;;;222205;1267;25470;-55
2023/03/09 11:06:29;;;;;;;6.10;5.60;;;22.90;50.70;;;;;;222308;1269;23911;-54
2023/03/09 11:11:33;;;;;;;5.70;5.20;;;22.70;50.90;;;;;;222284;1269;22799;-54
2023/03/09 11:16:53;;;;;;;5.90;5.20;;;22.60;50.60;;;;;;222256;1264;25427;-56
2023/03/09 11:21:58;;;;;;;6.00;5.30;;;22.70;50.70;;;;;;222255;1251;22638;-51
2023/03/09 11:27:16;;;;;;;5.40;4.90;;;22.60;51.20;;;;;;222302;1267;25688;-55
2023/03/09 11:32:21;;;;;;;5.00;4.70;;;22.50;51.20;;;;;;222219;1263;22557;-54
2023/03/09 11:37:36;;;;;;;5.20;4.70;;;22.40;51.30;;;;;;222155;1263;24171;-54
2023/03/09 11:43:23;;;;;;;5.40;4.80;;;22.40;51.30;;;;;;222490;1263;22504;-52
2023/03/09 11:48:52;;;;;;;5.70;5.00;;;22.30;51.20;;;;;;220753;1277;22649;-54
2023/03/09 11:54:18;;;;;;;5.10;4.60;;;22.30;51.70;;;;;;220492;1278;22531;-55
2023/03/09 11:59:41;;;;;;;5.20;4.80;;;22.20;51.30;;;;;;220588;1273;22630;-53
2023/03/09 12:04:51;;;;;;;5.10;4.60;;;22.10;51.20;;;;;;220642;1271;22618;-55
2023/03/09 12:10:28;;;;;;;5.80;4.40;;;22.10;51.40;;;;;;220499;1271;24274;-54
2023/03/09 12:15:51;;;;;;;5.10;4.30;;;22.00;51.50;;;;;;220558;1268;24209;-52
2023/03/09 12:20:58;;;;;;;4.50;4.10;;;21.90;51.60;;;;;;220488;1271;25241;-57
2023/03/09 12:26:14;;;;;;;4.60;4.20;;;21.80;52.40;;;;;;221934;1267;24221;-55
2023/03/09 12:31:36;;;;;;;5.10;4.60;;;21.80;52.10;;;;;;222041;1264;24292;-52
2023/03/09 12:36:41;;;;;;;4.70;4.30;;;21.80;52.30;;;;;;221966;1265;22525;-56
2023/03/09 12:42:07;;;;;;;4.50;4.10;;;21.70;52.40;;;;;;222154;1266;24310;-54
2023/03/09 12:47:21;;;;;;;4.10;3.80;;;21.80;52.10;;;;;;222087;1263;25222;-56
2023/03/09 12:52:57;;;;;;;4.80;4.30;;;22.10;51.50;;;;;;222049;1267;24232;-54
2023/03/09 12:58:19;;;;;;;4.50;4.10;;;22.50;50.80;;;;;;222021;1264;22535;-56
2023/03/09 13:03:39;;;;;;;4.50;4.10;;;22.70;50.50;;;;;;222079;1264;24215;-58
2023/03/09 13:08:43;;;;;;;3.80;3.50;;;22.90;50.10;;;;;;221745;1268;23101;-58
2023/03/09 13:13:47;;;;;;;5.30;3.50;;;23.00;50.00;;;;;;221627;1256;22511;-57
2023/03/09 13:19:35;;;;;;;4.30;3.90;;;23.10;49.70;;;;;;221869;1266;22555;-56
2023/03/09 13:24:41;;;;;;;4.30;3.70;;;23.10;49.70;;;;;;221968;1256;24245;-56
2023/03/09 13:29:52;;;;;;;4.20;3.60;;;23.30;49.50;;;;;;222030;1257;24093;-54
2023/03/09 13:34:59;;;;;;;8.70;3.30;;;23.30;49.60;;;;;;222007;1263;23944;-56
2023/03/09 13:40:08;;;;;;;3.70;3.40;;;23.40;49.50;;;;;;221981;1256;22620;-54
2023/03/09 13:45:24;;;;;;;3.90;3.60;;;23.40;49.30;;;;;;222129;1258;22511;-50
2023/03/09 13:50:32;;;;;;;3.70;3.40;;;23.50;49.50;;;;;;222116;1263;24200;-54
2023/03/09 13:55:35;;;;;;;3.80;3.50;;;23.40;49.20;;;;;;221736;1256;22595;-53
2023/03/09 14:00:51;;;;;;;4.40;4.00;;;23.60;49.40;;;;;;221947;1266;22738;-55
2023/03/09 14:05:57;;;;;;;3.50;3.20;;;23.60;49.00;;;;;;222235;1263;23024;-57
2023/03/09 14:11:29;;;;;;;3.70;3.40;;;23.70;48.90;;;;;;222041;1264;23927;-54
2023/03/09 14:16:35;;;;;;;3.20;3.00;;;23.70;48.70;;;;;;222059;1265;22525;-53
2023/03/09 14:21:39;;;;;;;3.40;3.20;;;23.70;49.10;;;;;;221992;1263;177915;-58
2023/03/09 14:26:45;;;;;;;3.60;3.30;;;23.60;48.90;;;;;;222221;1265;24187;-57
2023/03/09 14:32:22;;;;;;;3.80;3.50;;;23.40;49.20;;;;;;222079;1263;25408;-53
2023/03/09 14:37:31;;;;;;;3.90;3.60;;;23.40;49.50;;;;;;222097;1256;23916;-56
2023/03/09 14:42:35;;;;;;;3.50;3.30;;;23.30;49.60;;;;;;221859;1259;22520;-56
2023/03/09 14:47:40;;;;;;;3.90;3.40;;;23.20;50.10;;;;;;222001;1248;22694;-54
2023/03/09 14:52:45;;;;;;;3.40;3.10;;;23.10;49.90;;;;;;222163;1264;25911;-58
2023/03/09 14:57:50;;;;;;;3.40;3.20;;;23.00;50.00;;;;;;222135;1256;22516;-51
2023/03/09 15:02:54;;;;;;;3.70;3.10;;;22.90;50.80;;;;;;222055;1266;22537;-52
2023/03/09 15:07:59;;;;;;;3.90;3.10;;;22.90;49.90;;;;;;222168;1263;22514;-52
2023/03/09 15:13:04;;;;;;;3.50;3.30;;;22.80;50.50;;;;;;222141;1269;24308;-53
2023/03/09 15:18:11;;;;;;;3.80;3.50;;;22.60;50.40;;;;;;222389;1256;22514;-51
2023/03/09 15:23:15;;;;;;;4.10;3.80;;;22.70;49.70;;;;;;222121;1256;22591;-53
2023/03/09 15:28:20;;;;;;;4.80;3.90;;;22.60;49.30;;;;;;222009;1264;24383;-54
2023/03/09 15:33:25;;;;;;;3.80;3.50;;;22.50;49.80;;;;;;222310;1263;22520;-54
2023/03/09 15:38:29;;;;;;;3.20;3.00;;;22.40;49.90;;;;;;222214;1264;25506;-55
2023/03/09 15:43:35;;;;;;;3.40;3.10;;;22.40;50.10;;;;;;222186;1256;24073;-54
2023/03/09 15:48:40;;;;;;;3.20;3.00;;;22.30;50.10;;;;;;222294;1263;26608;-52
2023/03/09 15:53:45;;;;;;;3.90;3.40;;;22.20;50.20;;;;;;222384;1263;23963;-45
2023/03/09 15:58:49;;;;;;;3.50;3.20;;;22.20;50.20;;;;;;222213;1256;24634;-52
2023/03/09 16:03:53;;;;;;;8.30;3.50;;;22.10;50.30;;;;;;222199;1263;24204;-53
2023/03/09 16:08:57;;;;;;;4.50;4.00;;;22.10;50.50;;;;;;222045;1263;23872;-50
2023/03/09 16:14:01;;;;;;;4.10;3.70;;;22.20;50.10;;;;;;222170;1263;22511;-53
2023/03/09 16:19:05;;;;;;;9.30;4.30;;;22.10;50.70;;;;;;222115;1259;22508;-50
2023/03/09 16:24:09;;;;;;;6.30;3.80;;;22.10;50.90;;;;;;221864;1263;25262;-46
2023/03/09 16:29:13;;;;;;;4.30;3.40;;;22.10;50.70;;;;;;222012;1256;22504;-54
2023/03/09 16:34:18;;;;;;;4.10;3.50;;;22.10;50.60;;;;;;222014;1247;24250;-49
2023/03/09 16:39:23;;;;;;;5.80;4.00;;;22.00;50.80;;;;;;221771;1263;22677;-56
2023/03/09 16:44:27;;;;;;;5.20;4.70;;;22.00;50.60;;;;;;222715;1263;22551;-56
2023/03/09 16:49:37;;;;;;;6.60;4.00;;;21.90;50.60;;;;;;221859;1263;24062;-55
2023/03/09 16:54:44;;;;;;;9.40;6.90;;;21.90;50.60;;;;;;222373;1263;22506;-54
2023/03/09 17:00:13;;;;;;;9.60;5.70;;;21.90;51.30;;;;;;221708;1257;22514;-56
2023/03/09 17:05:25;;;;;;;9.80;5.30;;;21.90;51.60;;;;;;222183;1256;22842;-57
2023/03/09 17:10:30;;;;;;;6.10;5.50;;;21.90;51.60;;;;;;222339;1263;22517;-54
2023/03/09 17:15:34;;;;;;;7.60;5.80;;;21.90;51.80;;;;;;222184;1263;23918;-55
2023/03/09 17:20:39;;;;;;;5.70;4.70;;;21.90;51.80;;;;;;222224;1257;22524;-54
2023/03/09 17:25:43;;;;;;;5.90;4.90;;;21.90;51.90;;;;;;222126;1263;22512;-53
2023/03/09 17:30:48;;;;;;;5.20;4.70;;;21.90;51.90;;;;;;221671;1261;22504;-53
2023/03/09 17:35:53;;;;;;;8.10;5.30;;;21.90;52.30;;;;;;221874;1263;22520;-50
2023/03/09 17:41:01;;;;;;;11.30;5.40;;;22.00;53.30;;;;;;221967;1256;24229;-55
2023/03/09 17:46:09;;;;;;;7.60;5.20;;;22.00;53.10;;;;;;222267;1265;22508;-52
2023/03/09 17:51:20;;;;;;;7.60;5.00;;;22.00;53.60;;;;;;221936;1256;24028;-51
2023/03/09 17:56:28;;;;;;;6.80;5.10;;;21.90;53.50;;;;;;222235;1255;22632;-52
2023/03/09 18:01:34;;;;;;;9.50;5.30;;;21.90;53.80;;;;;;222039;1263;23008;-52
2023/03/09 18:06:39;;;;;;;6.60;5.60;;;22.00;53.80;;;;;;224281;1263;25448;-61
2023/03/09 18:11:44;;;;;;;8.80;6.60;;;22.10;53.90;;;;;;222038;1259;24191;-61
2023/03/09 18:16:51;;;;;;;9.50;5.90;;;22.10;55.20;;;;;;222254;1270;22508;-61
2023/03/09 18:21:57;;;;;;;9.10;6.00;;;22.30;55.30;;;;;;222259;1263;25211;-60
2023/03/09 18:27:03;;;;;;;7.40;5.60;;;22.30;55.00;;;;;;222090;1262;22547;-62
2023/03/09 18:32:10;;;;;;;6.80;6.00;;;22.30;55.00;;;;;;222258;1263;22528;-62
2023/03/09 18:37:16;;;;;;;9.00;5.90;;;22.20;55.30;;;;;;222177;1263;24153;-58
2023/03/09 18:42:26;;;;;;;10.50;6.50;;;22.20;55.10;;;;;;222380;1265;23801;-58
2023/03/09 18:47:32;;;;;;;7.20;5.90;;;22.20;55.40;;;;;;222136;1263;24239;-58
2023/03/09 18:52:40;;;;;;;9.00;6.00;;;22.20;54.90;;;;;;221879;1263;24378;-57
2023/03/09 18:57:45;;;;;;;10.20;6.00;;;22.00;55.00;;;;;;222055;1263;24319;-58
2023/03/09 19:02:51;;;;;;;9.00;6.50;;;22.00;54.70;;;;;;222105;1263;22504;-57
2023/03/09 19:07:57;;;;;;;9.70;5.90;;;22.00;55.20;;;;;;222032;1266;25122;-52
2023/03/09 19:13:04;;;;;;;7.70;5.80;;;22.00;55.30;;;;;;221865;1264;24254;-48
2023/03/09 19:18:09;;;;;;;10.20;5.70;;;21.90;54.90;;;;;;221828;1263;23934;-51
2023/03/09 19:23:15;;;;;;;12.20;6.10;;;21.90;55.00;;;;;;222131;1263;22513;-51
2023/03/09 19:28:21;;;;;;;8.30;5.80;;;21.80;55.00;;;;;;221847;1263;22508;-54
2023/03/09 19:33:34;;;;;;;9.30;5.80;;;21.80;54.80;;;;;;222187;1266;22636;-49
2023/03/09 19:38:44;;;;;;;8.10;5.90;;;21.80;54.80;;;;;;221655;1265;22511;-46
2023/03/09 19:43:56;;;;;;;8.40;5.60;;;21.70;54.70;;;;;;221940;1270;25026;-51
2023/03/09 19:56:12;;;;;;;7.80;5.40;;;21.80;54.30;;;;;;222181;1269;24367;-57
2023/03/09 20:01:24;;;;;;;6.10;5.20;;;22.20;53.70;;;;;;222002;1263;24190;-51
2023/03/09 20:06:36;;;;;;;7.10;5.50;;;22.30;52.50;;;;;;221849;1264;25312;-53
2023/03/09 20:11:45;;;;;;;14.00;5.50;;;22.50;51.70;;;;;;221885;1263;24218;-51
2023/03/09 20:16:51;;;;;;;11.50;5.80;;;22.70;51.30;;;;;;221866;1263;22602;-51
2023/03/09 20:21:58;;;;;;;7.80;5.50;;;22.80;51.10;;;;;;222023;1268;22508;-54
2023/03/09 20:27:09;;;;;;;7.20;5.60;;;22.80;50.90;;;;;;222100;1264;22543;-54
2023/03/09 20:32:23;;;;;;;11.50;5.70;;;22.90;51.10;;;;;;221901;1257;22564;-51
2023/03/09 20:37:30;;;;;;;6.70;5.80;;;22.80;51.10;;;;;;221851;1256;23010;-50
2023/03/09 20:42:36;;;;;;;7.60;5.90;;;23.10;50.70;;;;;;222406;1260;24238;-54
2023/03/09 20:47:42;;;;;;;6.80;5.80;;;23.30;50.30;;;;;;222028;1263;25386;-55
2023/03/09 20:52:50;;;;;;;10.70;6.30;;;23.30;50.10;;;;;;221854;1259;24237;-54
2023/03/09 20:57:56;;;;;;;6.80;6.10;;;23.30;50.00;;;;;;221923;1264;22508;-53
2023/03/09 21:03:07;;;;;;;7.90;6.30;;;23.30;50.00;;;;;;222038;1263;25330;-44
2023/03/09 21:08:11;;;;;;;12.60;6.10;;;23.10;50.20;;;;;;222133;1263;24199;-54
2023/03/09 21:13:18;;;;;;;10.30;6.20;;;23.10;51.00;;;;;;222181;1264;24229;-53
2023/03/09 21:18:24;;;;;;;7.10;6.10;;;23.00;51.40;;;;;;222255;1254;25343;-52
2023/03/09 21:23:32;;;;;;;11.30;6.00;;;22.80;51.40;;;;;;221997;1262;22549;-48
2023/03/09 21:28:39;;;;;;;17.10;6.30;;;22.80;51.80;;;;;;222246;1267;22546;-53
2023/03/09 21:33:43;;;;;;;9.30;6.30;;;22.90;51.50;;;;;;222106;1263;22934;-49
2023/03/09 21:38:48;;;;;;;12.40;6.90;;;22.70;52.10;;;;;;221704;1263;23055;-52
2023/03/09 21:43:53;;;;;;;13.90;7.10;;;22.70;54.10;;;;;;222175;1263;24174;-54
2023/03/09 21:48:57;;;;;;;12.00;6.40;;;22.70;53.30;;;;;;222523;1266;23016;-54
2023/03/09 21:54:02;;;;;;;8.90;6.20;;;22.50;53.40;;;;;;221970;1264;25269;-55
2023/03/09 21:59:06;;;;;;;7.80;6.60;;;22.40;53.40;;;;;;222062;1247;25686;-52
2023/03/09 22:04:10;;;;;;;10.40;7.00;;;22.20;53.50;;;;;;222034;1263;23003;-54
2023/03/09 22:09:14;;;;;;;11.00;6.50;;;22.20;53.70;;;;;;222161;1268;22573;-50
2023/03/09 22:14:18;;;;;;;9.50;6.60;;;22.20;53.20;;;;;;222131;1263;22564;-54
2023/03/09 22:19:22;;;;;;;8.90;6.60;;;22.10;53.00;;;;;;222302;1263;22720;-51
2023/03/09 22:24:26;;;;;;;8.20;6.40;;;22.10;53.00;;;;;;222038;1257;23912;-53
2023/03/09 22:29:31;;;;;;;16.20;7.20;;;22.00;53.10;;;;;;221936;1269;22612;-55
2023/03/09 22:34:35;;;;;;;11.50;7.60;;;22.10;55.90;;;;;;222422;1263;24210;-53
2023/03/09 22:46:40;;;;;;;14.20;7.00;;;22.30;56.20;;;;;;222075;1263;22523;-44
2023/03/09 22:51:45;;;;;;;11.10;8.10;;;22.20;56.10;;;;;;222189;1263;22537;-45
2023/03/09 22:56:55;;;;;;;11.30;7.20;;;22.10;55.80;;;;;;221740;1262;24221;-44
2023/03/09 23:02:05;;;;;;;10.40;7.20;;;22.00;55.60;;;;;;221829;1258;23898;-43
2023/03/09 23:07:12;;;;;;;11.30;7.10;;;22.00;55.50;;;;;;222007;1263;22623;-44
2023/03/09 23:12:16;;;;;;;11.70;6.80;;;21.90;55.90;;;;;;222072;1257;24233;-45
2023/03/09 23:17:20;;;;;;;8.00;7.10;;;21.90;55.50;;;;;;221937;1264;22548;-44
2023/03/09 23:22:24;;;;;;;9.00;6.50;;;21.90;55.60;;;;;;221894;1256;23357;-42
2023/03/09 23:27:28;;;;;;;10.50;6.80;;;21.90;55.20;;;;;;222029;1256;23911;-44
2023/03/09 23:32:32;;;;;;;9.30;6.90;;;21.90;55.20;;;;;;221854;1263;24369;-44
2023/03/09 23:37:36;;;;;;;7.80;6.40;;;21.80;55.40;;;;;;222181;1260;22592;-44
2023/03/09 23:42:40;;;;;;;11.30;6.10;;;21.70;55.20;;;;;;222121;1263;24301;-44
2023/03/09 23:47:44;;;;;;;8.00;6.70;;;21.60;55.60;;;;;;222200;1269;22702;-45
2023/03/09 23:52:48;;;;;;;7.70;6.30;;;21.60;55.80;;;;;;222323;1263;22530;-45
2023/03/09 23:57:52;;;;;;;9.80;7.10;;;21.60;55.90;;;;;;222313;1263;24183;-43
